Time;durP1;ratioP1;P1;durP2;ratioP2;P2;SDS_P1;SDS_P2;PMS_P1;PMS_P2;Temp;Humidity;BMP_temperature;BMP_pressure;BME280_temperature;BME280_humidity;BME280_pressure;Samples;Min_cycle;Max_cycle;Signal;HPM_P1;HPM_P2
2022/06/08 00:02:28;;;;;;;27.70;25.10;;;;;;;17.09;100.00;98498.48;104937;1268;68534;-75
2022/06/08 00:04:55;;;;;;;28.40;25.70;;;;;;;17.08;100.00;98486.27;104963;1268;73368;-75
2022/06/08 00:07:22;;;;;;;25.60;23.30;;;;;;;17.05;100.00;98475.39;105216;1268;62209;-74
2022/06/08 00:09:48;;;;;;;27.80;25.40;;;;;;;17.03;100.00;98467.36;105182;1268;62623;-74
2022/06/08 00:12:15;;;;;;;30.10;27.40;;;;;;;17.01;100.00;98465.04;105219;1268;76784;-75
2022/06/08 00:14:43;;;;;;;30.00;27.00;;;;;;;17.00;100.00;98466.27;105222;1267;69208;-75
2022/06/08 00:17:09;;;;;;;30.60;27.70;;;;;;;16.99;100.00;98468.89;105172;1268;73386;-74
2022/06/08 00:19:36;;;;;;;31.40;28.50;;;;;;;16.99;100.00;98472.26;105201;1268;62183;-76
2022/06/08 00:22:03;;;;;;;30.80;27.90;;;;;;;17.01;100.00;98475.52;105221;1268;61979;-76
2022/06/08 00:24:31;;;;;;;32.30;29.20;;;;;;;17.01;100.00;98482.44;105218;1268;75985;-78
2022/06/08 00:26:58;;;;;;;30.50;27.60;;;;;;;17.02;100.00;98489.71;105022;1268;69241;-74
2022/06/08 00:29:25;;;;;;;29.60;26.80;;;;;;;17.01;100.00;98497.88;104989;1268;72692;-76
2022/06/08 00:31:51;;;;;;;30.50;27.50;;;;;;;17.01;100.00;98499.66;105184;1268;63491;-75
2022/06/08 00:34:18;;;;;;;30.70;27.70;;;;;;;17.00;100.00;98495.14;105176;1268;62074;-75
2022/06/08 00:36:45;;;;;;;30.20;27.40;;;;;;;16.98;100.00;98489.04;105192;1268;74341;-75
2022/06/08 00:39:11;;;;;;;29.20;26.50;;;;;;;16.96;100.00;98484.64;105216;1268;70531;-75
2022/06/08 00:41:41;;;;;;;30.00;27.20;;;;;;;16.89;100.00;98487.95;104958;1268;62113;-75
2022/06/08 00:44:14;;;;;;;30.40;27.50;;;;;;;16.85;100.00;98484.04;105211;1267;62119;-75
2022/06/08 00:46:41;;;;;;;30.70;27.70;;;;;;;16.83;100.00;98482.17;104998;1268;62199;-75
2022/06/08 00:49:18;;;;;;;30.60;27.80;;;;;;;16.82;100.00;98485.60;104896;1268;77184;-77
2022/06/08 00:51:46;;;;;;;30.60;27.50;;;;;;;16.83;100.00;98491.48;105181;1268;68570;-76
2022/06/08 00:54:21;;;;;;;30.60;27.50;;;;;;;16.84;100.00;98491.57;104870;1268;73289;-74
2022/06/08 00:57:05;;;;;;;29.40;26.60;;;;;;;16.84;100.00;98495.33;105211;1268;62196;-74
2022/06/08 00:59:35;;;;;;;31.50;28.60;;;;;;;16.82;100.00;98490.98;105042;1269;62244;-74
2022/06/08 01:02:03;;;;;;;28.40;25.60;;;;;;;16.82;100.00;98494.20;105321;1268;75970;-74
2022/06/08 01:04:30;;;;;;;27.70;25.00;;;;;;;16.82;100.00;98492.46;105204;1268;67690;-76
2022/06/08 01:06:58;;;;;;;30.80;27.90;;;;;;;16.79;100.00;98490.02;105201;1268;73294;-75
2022/06/08 01:09:39;;;;;;;29.50;26.80;;;;;;;16.79;100.00;98486.08;104936;1268;62358;-75
2022/06/08 01:12:32;;;;;;;30.60;27.70;;;;;;;16.79;100.00;98469.09;105229;1268;62094;-74
2022/06/08 01:14:59;;;;;;;36.30;32.50;;;;;;;16.77;100.00;98446.86;104520;1277;77203;-72
2022/06/08 01:17:25;;;;;;;33.90;30.60;;;;;;;16.75;100.00;98440.64;104804;1277;69341;-72
2022/06/08 01:19:52;;;;;;;33.90;30.70;;;;;;;16.69;100.00;98447.95;104754;1276;62350;-73
2022/06/08 01:22:20;;;;;;;34.10;30.50;;;;;;;16.66;100.00;98449.77;104812;1277;62388;-73
2022/06/08 01:24:51;;;;;;;34.70;31.40;;;;;;;16.64;100.00;98449.05;104815;1277;62322;-72
2022/06/08 01:27:42;;;;;;;33.80;30.30;;;;;;;16.62;100.00;98443.52;104950;1277;75015;-74
2022/06/08 01:30:21;;;;;;;35.40;31.90;;;;;;;16.59;100.00;98436.77;104461;1277;67379;-72
2022/06/08 01:32:56;;;;;;;38.80;34.90;;;;;;;16.59;100.00;98434.85;104763;1277;74688;-73
2022/06/08 01:35:47;;;;;;;38.50;34.70;;;;;;;16.60;100.00;98434.39;104525;1277;62269;-72
2022/06/08 01:38:34;;;;;;;37.80;34.10;;;;;;;16.58;100.00;98433.83;104812;1277;62079;-72
2022/06/08 01:41:29;;;;;;;34.80;31.30;;;;;;;16.57;100.00;98433.38;104807;1277;74116;-74
2022/06/08 01:44:08;;;;;;;37.30;33.70;;;;;;;16.52;100.00;98427.16;104766;1277;70227;-74
2022/06/08 01:46:46;;;;;;;38.50;34.50;;;;;;;16.50;100.00;98431.06;104774;1277;72320;-73
2022/06/08 01:49:22;;;;;;;38.10;34.40;;;;;;;16.51;100.00;98429.77;104752;1277;62114;-73
2022/06/08 01:52:02;;;;;;;37.10;33.30;;;;;;;16.53;100.00;98432.98;104893;1265;62196;-72
2022/06/08 01:54:58;;;;;;;37.50;33.90;;;;;;;16.54;100.00;98429.99;105230;1268;75928;-73
2022/06/08 01:57:37;;;;;;;37.50;33.70;;;;;;;16.52;100.00;98427.83;105204;1268;68899;-74
2022/06/08 02:00:38;;;;;;;37.20;33.60;;;;;;;16.52;100.00;98431.92;105194;1268;74519;-73
2022/06/08 02:03:23;;;;;;;35.30;31.80;;;;;;;16.53;100.00;98432.73;105194;1268;62120;-73
2022/06/08 02:06:02;;;;;;;38.30;34.40;;;;;;;16.54;100.00;98428.59;105214;1268;62278;-74
2022/06/08 02:08:37;;;;;;;38.40;34.50;;;;;;;16.54;100.00;98424.95;105191;1268;76283;-74
2022/06/08 02:11:18;;;;;;;38.00;34.30;;;;;;;16.54;100.00;98422.83;105216;1268;68815;-75
2022/06/08 02:13:54;;;;;;;38.60;34.80;;;;;;;16.52;100.00;98421.61;105204;1268;73212;-74
2022/06/08 02:16:26;;;;;;;39.40;35.60;;;;;;;16.51;100.00;98421.32;105192;1268;62165;-74
2022/06/08 02:19:01;;;;;;;41.70;37.50;;;;;;;16.49;100.00;98414.48;105231;1268;61981;-72
2022/06/08 02:21:36;;;;;;;41.70;37.60;;;;;;;16.49;100.00;98413.09;105212;1268;75352;-72
2022/06/08 02:24:34;;;;;;;39.60;35.80;;;;;;;16.47;100.00;98409.70;105236;1268;69342;-73
2022/06/08 02:27:10;;;;;;;39.00;35.20;;;;;;;16.47;100.00;98412.88;105197;1268;73164;-74
2022/06/08 02:29:39;;;;;;;39.50;35.80;;;;;;;16.46;100.00;98419.46;105192;1268;62073;-74
2022/06/08 02:35:05;;;;;;;42.70;38.10;;;;;;;16.43;100.00;98411.67;105191;1268;75108;-74
2022/06/08 02:37:34;;;;;;;40.40;36.00;;;;;;;16.42;100.00;98413.89;105411;1268;70291;-73
2022/06/08 02:40:15;;;;;;;39.80;35.70;;;;;;;16.43;100.00;98411.20;105281;1268;73552;-73
2022/06/08 02:42:48;;;;;;;37.90;34.20;;;;;;;16.43;100.00;98412.89;105272;1268;62055;-73
2022/06/08 02:45:24;;;;;;;40.90;36.80;;;;;;;16.42;100.00;98414.25;105225;1268;62083;-72
2022/06/08 02:47:54;;;;;;;42.10;38.00;;;;;;;16.42;100.00;98411.06;105209;1268;75604;-73
2022/06/08 02:50:23;;;;;;;41.40;37.30;;;;;;;16.41;100.00;98407.55;105380;1268;69362;-73
2022/06/08 02:52:52;;;;;;;42.30;38.00;;;;;;;16.41;100.00;98408.86;105200;1268;74457;-73
2022/06/08 02:55:28;;;;;;;39.00;35.30;;;;;;;16.39;100.00;98408.64;105151;1268;62315;-73
2022/06/08 02:58:08;;;;;;;39.30;35.40;;;;;;;16.37;100.00;98408.32;105206;1268;62646;-73
2022/06/08 03:01:08;;;;;;;39.20;35.10;;;;;;;16.35;100.00;98407.83;105198;1268;75982;-73
2022/06/08 03:04:08;;;;;;;39.00;35.20;;;;;;;16.35;100.00;98409.79;104777;1277;69306;-75
2022/06/08 03:06:41;;;;;;;43.00;38.60;;;;;;;16.36;100.00;98404.92;103954;1282;73391;-75
2022/06/08 03:09:12;;;;;;;41.80;37.50;;;;;;;16.36;100.00;98406.83;103934;1284;62255;-73
2022/06/08 03:11:45;;;;;;;41.50;37.60;;;;;;;16.37;100.00;98412.48;104247;1284;62128;-73
2022/06/08 03:14:15;;;;;;;44.30;39.60;;;;;;;16.39;100.00;98414.46;104035;1284;76091;-73
2022/06/08 03:16:54;;;;;;;43.10;38.70;;;;;;;16.39;100.00;98412.04;104042;1285;69315;-73
2022/06/08 03:19:21;;;;;;;42.90;38.50;;;;;;;16.40;100.00;98413.93;103991;1284;73394;-74
2022/06/08 03:21:48;;;;;;;42.70;38.30;;;;;;;16.38;100.00;98414.48;103950;1284;62331;-73
2022/06/08 03:24:16;;;;;;;42.60;38.30;;;;;;;16.38;100.00;98417.07;104007;1284;62189;-74
2022/06/08 03:26:48;;;;;;;42.90;38.40;;;;;;;16.38;100.00;98418.69;104073;1284;77290;-73
2022/06/08 03:29:15;;;;;;;43.00;38.30;;;;;;;16.38;100.00;98421.71;103977;1284;69714;-73
2022/06/08 03:31:42;;;;;;;44.20;39.50;;;;;;;16.38;100.00;98415.57;103935;1284;74183;-72
2022/06/08 03:34:09;;;;;;;46.40;41.40;;;;;;;16.40;100.00;98418.67;103958;1284;62148;-74
2022/06/08 03:36:36;;;;;;;42.10;37.80;;;;;;;16.42;100.00;98424.36;103951;1283;62135;-73
2022/06/08 03:39:05;;;;;;;44.10;39.60;;;;;;;16.43;100.00;98427.95;103984;1284;76916;-73
2022/06/08 03:41:32;;;;;;;40.70;36.30;;;;;;;16.46;100.00;98431.44;104701;1276;68618;-73
2022/06/08 03:43:59;;;;;;;40.30;36.20;;;;;;;16.48;100.00;98432.52;104841;1271;72572;-73
2022/06/08 03:46:27;;;;;;;41.20;37.00;;;;;;;16.50;100.00;98432.91;105156;1271;62145;-74
2022/06/08 03:48:56;;;;;;;41.30;37.20;;;;;;;16.52;100.00;98433.95;105176;1271;62165;-74
2022/06/08 03:51:23;;;;;;;39.80;35.70;;;;;;;16.53;100.00;98436.30;105128;1270;76473;-73
2022/06/08 03:53:59;;;;;;;38.10;34.30;;;;;;;16.55;100.00;98443.86;105147;1271;68783;-74
2022/06/08 03:56:29;;;;;;;38.40;34.30;;;;;;;16.56;100.00;98445.04;104965;1271;74198;-74
2022/06/08 03:58:56;;;;;;;40.90;36.80;;;;;;;16.55;100.00;98448.16;105056;1270;62122;-73
2022/06/08 04:01:24;;;;;;;37.60;33.80;;;;;;;16.54;100.00;98444.66;105077;1270;62068;-73
2022/06/08 04:03:52;;;;;;;39.70;35.90;;;;;;;16.54;100.00;98440.75;105347;1271;75923;-73
2022/06/08 04:06:20;;;;;;;39.80;35.80;;;;;;;16.54;100.00;98440.95;104935;1271;67962;-73
2022/06/08 04:08:46;;;;;;;39.70;35.60;;;;;;;16.55;100.00;98439.75;105250;1271;74147;-73
2022/06/08 04:11:13;;;;;;;39.40;35.00;;;;;;;16.55;100.00;98443.45;105188;1271;62100;-73
2022/06/08 04:13:40;;;;;;;39.10;35.20;;;;;;;16.54;100.00;98449.66;105205;1271;62277;-73
2022/06/08 04:16:08;;;;;;;38.10;34.40;;;;;;;16.51;100.00;98449.08;105664;1271;75368;-73
2022/06/08 04:18:35;;;;;;;39.80;35.70;;;;;;;16.51;100.00;98454.85;105182;1271;68606;-74
2022/06/08 04:21:04;;;;;;;38.60;34.60;;;;;;;16.51;100.00;98456.30;105311;1271;74432;-72
2022/06/08 04:23:32;;;;;;;39.70;35.40;;;;;;;16.49;100.00;98459.67;105221;1271;62081;-74
2022/06/08 04:26:00;;;;;;;39.50;35.40;;;;;;;16.48;100.00;98462.67;105179;1270;62088;-74
2022/06/08 04:28:27;;;;;;;39.70;35.90;;;;;;;16.46;100.00;98467.83;105378;1271;77092;-73
2022/06/08 04:30:54;;;;;;;40.00;35.90;;;;;;;16.45;100.00;98471.94;105031;1270;69356;-74
2022/06/08 04:33:20;;;;;;;37.50;33.70;;;;;;;16.44;100.00;98469.84;105064;1270;72449;-74
2022/06/08 04:35:48;;;;;;;37.40;33.60;;;;;;;16.40;100.00;98470.24;105188;1271;62022;-74
2022/06/08 04:38:16;;;;;;;38.80;34.90;;;;;;;16.36;100.00;98467.64;105193;1271;62198;-74
2022/06/08 04:40:44;;;;;;;37.10;33.40;;;;;;;16.30;100.00;98465.83;105369;1271;76102;-73
2022/06/08 04:43:11;;;;;;;34.50;31.00;;;;;;;16.26;100.00;98463.78;104954;1271;69648;-74
2022/06/08 04:45:39;;;;;;;31.90;28.80;;;;;;;16.22;100.00;98459.33;105221;1271;73552;-72
2022/06/08 04:48:06;;;;;;;34.80;30.30;;;;;;;16.17;100.00;98457.07;105451;1271;62104;-74
2022/06/08 04:50:33;;;;;;;32.20;29.00;;;;;;;16.15;100.00;98454.96;105159;1271;62882;-73
2022/06/08 04:52:59;;;;;;;29.60;26.80;;;;;;;16.14;100.00;98454.06;105180;1271;75916;-71
2022/06/08 04:55:26;;;;;;;28.80;26.10;;;;;;;16.10;100.00;98458.17;105196;1271;69437;-71
2022/06/08 04:57:53;;;;;;;31.20;28.10;;;;;;;16.06;100.00;98455.19;105183;1271;74156;-72
2022/06/08 05:00:22;;;;;;;35.80;30.40;;;;;;;16.00;100.00;98456.77;105195;1271;62185;-73
2022/06/08 05:02:51;;;;;;;33.50;30.00;;;;;;;15.96;100.00;98450.71;105181;1271;62438;-73
2022/06/08 05:05:32;;;;;;;34.30;30.40;;;;;;;15.94;100.00;98449.30;105318;1271;75038;-75
2022/06/08 05:08:00;;;;;;;32.00;28.80;;;;;;;15.90;100.00;98450.97;105206;1271;69235;-74
2022/06/08 05:10:30;;;;;;;34.10;30.80;;;;;;;15.91;100.00;98459.62;105191;1271;71265;-74
2022/06/08 05:12:58;;;;;;;33.40;30.10;;;;;;;15.96;100.00;98461.32;105258;1270;62340;-73
2022/06/08 05:15:28;;;;;;;35.00;31.40;;;;;;;16.00;100.00;98466.67;105197;1271;62112;-75
2022/06/08 05:17:55;;;;;;;;;;;;;;;16.01;100.00;98469.08;105250;1271;76917;-74
2022/06/08 05:20:22;;;;;;;29.70;26.80;;;;;;;15.99;100.00;98470.30;105174;1271;68573;-75
2022/06/08 05:22:49;;;;;;;34.10;30.50;;;;;;;15.99;100.00;98460.33;105185;1271;74222;-76
2022/06/08 05:25:22;;;;;;;36.40;32.50;;;;;;;15.99;100.00;98454.38;105033;1272;62178;-76
2022/06/08 05:27:48;;;;;;;33.50;30.10;;;;;;;16.01;100.00;98450.66;105169;1271;62132;-77
2022/06/08 05:30:15;;;;;;;34.60;31.10;;;;;;;16.01;100.00;98457.29;105149;1270;77435;-76
2022/06/08 05:32:42;;;;;;;35.10;31.40;;;;;;;15.98;100.00;98470.67;105219;1271;69329;-76
2022/06/08 05:35:09;;;;;;;33.50;30.10;;;;;;;15.94;100.00;98481.35;105146;1271;62391;-76
2022/06/08 05:37:36;;;;;;;31.90;28.60;;;;;;;15.93;100.00;98482.07;105026;1271;62282;-76
2022/06/08 05:40:05;;;;;;;34.10;30.60;;;;;;;15.92;100.00;98475.11;105189;1270;61995;-75
2022/06/08 05:42:32;;;;;;;35.70;32.00;;;;;;;15.92;100.00;98465.31;105286;1269;75979;-75
2022/06/08 05:44:58;;;;;;;35.10;31.40;;;;;;;15.91;100.00;98461.16;105177;1271;69238;-75
2022/06/08 05:47:26;;;;;;;35.80;32.20;;;;;;;15.92;100.00;98463.01;105192;1271;72969;-76
2022/06/08 05:49:53;;;;;;;33.80;30.30;;;;;;;15.93;100.00;98468.41;105213;1271;62175;-76
2022/06/08 05:52:19;;;;;;;34.20;30.70;;;;;;;15.90;100.00;98469.24;105185;1271;62404;-76
2022/06/08 05:54:47;;;;;;;35.20;31.70;;;;;;;15.87;100.00;98463.60;105214;1271;74361;-76
2022/06/08 05:57:14;;;;;;;35.70;31.90;;;;;;;15.87;100.00;98459.02;105211;1271;69171;-75
2022/06/08 05:59:41;;;;;;;34.00;30.60;;;;;;;15.88;100.00;98457.47;105225;1270;73183;-75
2022/06/08 06:02:12;;;;;;;33.20;29.70;;;;;;;15.88;100.00;98455.66;105240;1270;62208;-76
2022/06/08 06:04:38;;;;;;;35.20;31.40;;;;;;;15.87;100.00;98456.27;105178;1271;62076;-76
2022/06/08 06:07:05;;;;;;;34.80;30.60;;;;;;;15.86;100.00;98456.00;105153;1271;76961;-74
2022/06/08 06:09:32;;;;;;;31.80;28.40;;;;;;;15.84;100.00;98459.10;105207;1271;70695;-74
2022/06/08 06:11:59;;;;;;;34.60;30.90;;;;;;;15.82;100.00;98463.41;105219;1271;73395;-75
2022/06/08 06:14:25;;;;;;;37.00;33.20;;;;;;;15.82;100.00;98457.18;105201;1271;62110;-75
2022/06/08 06:16:52;;;;;;;35.90;32.00;;;;;;;15.82;100.00;98448.36;105191;1271;62132;-75
2022/06/08 06:19:19;;;;;;;32.40;29.10;;;;;;;15.81;100.00;98446.66;105184;1270;76151;-74
2022/06/08 06:21:45;;;;;;;33.20;29.60;;;;;;;15.79;100.00;98442.71;105174;1271;70167;-74
2022/06/08 06:24:12;;;;;;;34.30;30.00;;;;;;;15.80;100.00;98440.52;105215;1271;62136;-75
2022/06/08 06:26:38;;;;;;;36.40;32.60;;;;;;;15.80;100.00;98444.27;105207;1271;62554;-75
2022/06/08 06:29:05;;;;;;;35.90;32.00;;;;;;;15.82;100.00;98448.92;105039;1271;62209;-75
2022/06/08 06:31:49;;;;;;;38.00;34.10;;;;;;;15.85;100.00;98456.38;105189;1271;62194;-75
2022/06/08 06:34:19;;;;;;;34.90;31.40;;;;;;;15.95;100.00;98456.80;105185;1271;70434;-73
2022/06/08 06:36:46;;;;;;;34.70;31.10;;;;;;;16.07;100.00;98457.02;105204;1271;72442;-75
2022/06/08 06:39:12;;;;;;;33.10;29.70;;;;;;;16.23;100.00;98461.02;105195;1271;62069;-76
2022/06/08 06:41:40;;;;;;;32.80;29.60;;;;;;;16.38;100.00;98459.00;105190;1271;62199;-75
2022/06/08 06:44:07;;;;;;;30.80;27.80;;;;;;;16.52;100.00;98465.27;104984;1272;77271;-75
2022/06/08 06:46:33;;;;;;;30.00;27.20;;;;;;;16.61;100.00;98450.93;105197;1271;67537;-76
2022/06/08 06:49:00;;;;;;;28.80;26.10;;;;;;;16.66;100.00;98442.58;105186;1269;74421;-76
2022/06/08 06:51:27;;;;;;;25.20;22.70;;;;;;;16.65;100.00;98442.14;104968;1273;62314;-77
2022/06/08 06:53:53;;;;;;;27.90;24.90;;;;;;;16.64;100.00;98451.02;105213;1271;63903;-76
2022/06/08 06:56:20;;;;;;;27.90;25.30;;;;;;;16.66;100.00;98454.79;105200;1271;62129;-76
2022/06/08 06:58:49;;;;;;;26.30;24.00;;;;;;;16.69;100.00;98456.63;105189;1271;62072;-75
2022/06/08 07:01:17;;;;;;;26.30;23.80;;;;;;;16.71;100.00;98453.88;105215;1271;73022;-76
2022/06/08 07:03:44;;;;;;;25.90;23.40;;;;;;;16.73;100.00;98455.15;105255;1271;62087;-76
2022/06/08 07:06:10;;;;;;;25.00;22.80;;;;;;;16.75;100.00;98457.60;105226;1271;62114;-73
2022/06/08 07:08:38;;;;;;;23.40;21.10;;;;;;;16.79;100.00;98459.80;104995;1271;75932;-77
2022/06/08 07:13:51;;;;;;;22.00;19.90;;;;;;;16.87;100.00;98465.36;105180;1271;74133;-79
2022/06/08 07:16:17;;;;;;;23.00;21.00;;;;;;;16.94;100.00;98468.45;105170;1271;62179;-77
2022/06/08 07:18:44;;;;;;;24.40;22.00;;;;;;;16.98;100.00;98469.15;105209;1271;62130;-76
2022/06/08 07:21:11;;;;;;;22.90;20.80;;;;;;;17.02;100.00;98466.55;105210;1271;62094;-76
2022/06/08 07:23:38;;;;;;;22.50;20.30;;;;;;;17.08;100.00;98462.43;105248;1271;68655;-77
2022/06/08 07:26:04;;;;;;;22.60;20.40;;;;;;;17.13;100.00;98460.41;105215;1271;74382;-76
2022/06/08 07:28:31;;;;;;;23.00;21.00;;;;;;;17.20;100.00;98465.08;105149;1270;62106;-77
2022/06/08 07:30:58;;;;;;;20.30;18.40;;;;;;;17.26;100.00;98468.10;104942;1272;61964;-77
2022/06/08 07:33:24;;;;;;;20.30;18.50;;;;;;;17.25;100.00;98474.27;105178;1271;75932;-77
2022/06/08 07:35:51;;;;;;;21.10;19.30;;;;;;;17.21;100.00;98480.77;105190;1271;62057;-76
2022/06/08 07:38:18;;;;;;;20.50;18.20;;;;;;;17.18;100.00;98487.53;105188;1271;74415;-76
2022/06/08 07:40:45;;;;;;;19.20;17.30;;;;;;;17.16;100.00;98486.34;105209;1272;62211;-76
2022/06/08 07:43:12;;;;;;;18.50;16.70;;;;;;;17.14;100.00;98486.20;105192;1271;61953;-77
2022/06/08 07:45:38;;;;;;;21.20;19.30;;;;;;;17.08;100.00;98484.91;105146;1271;77726;-77
2022/06/08 07:50:50;;;;;;;21.50;19.50;;;;;;;16.99;100.00;98477.84;104990;1272;73187;-77
2022/06/08 07:53:17;;;;;;;21.20;19.30;;;;;;;16.96;100.00;98482.92;105200;1271;62444;-77
2022/06/08 07:55:44;;;;;;;21.80;19.60;;;;;;;16.95;100.00;98488.29;105186;1271;62111;-77
2022/06/08 07:58:11;;;;;;;24.20;21.60;;;;;;;16.94;100.00;98490.02;105036;1271;77084;-77
2022/06/08 08:00:37;;;;;;;22.40;20.20;;;;;;;16.93;100.00;98496.77;105187;1271;62192;-76
2022/06/08 08:03:04;;;;;;;22.70;20.30;;;;;;;16.91;100.00;98496.98;105195;1271;73350;-77
2022/06/08 08:05:31;;;;;;;23.40;21.00;;;;;;;16.87;100.00;98507.23;105190;1272;62310;-76
2022/06/08 08:07:58;;;;;;;25.00;22.30;;;;;;;16.83;100.00;98517.07;105201;1271;62049;-76
2022/06/08 08:10:26;;;;;;;25.10;22.60;;;;;;;16.81;100.00;98525.02;105191;1271;76040;-76
2022/06/08 08:12:55;;;;;;;24.90;22.30;;;;;;;16.79;100.00;98531.92;105189;1270;69170;-77
2022/06/08 08:15:23;;;;;;;25.10;22.30;;;;;;;16.76;100.00;98539.70;104947;1274;73261;-77
2022/06/08 08:17:50;;;;;;;24.90;22.30;;;;;;;16.73;100.00;98543.64;105197;1271;62203;-76
2022/06/08 08:20:18;;;;;;;24.70;22.20;;;;;;;16.71;100.00;98549.34;105168;1271;62515;-77
2022/06/08 08:22:46;;;;;;;26.30;23.60;;;;;;;16.67;100.00;98552.56;105209;1271;77214;-76
2022/06/08 08:25:15;;;;;;;28.40;25.10;;;;;;;16.66;100.00;98552.67;105177;1271;69098;-76
2022/06/08 08:27:43;;;;;;;27.10;24.20;;;;;;;16.66;100.00;98556.25;105186;1271;73340;-77
2022/06/08 08:30:16;;;;;;;28.90;25.90;;;;;;;16.65;100.00;98556.72;105190;1271;62222;-76
2022/06/08 08:32:42;;;;;;;28.60;24.20;;;;;;;16.64;100.00;98549.79;105208;1271;62193;-76
2022/06/08 08:35:10;;;;;;;28.50;25.70;;;;;;;16.65;100.00;98539.67;105197;1271;62196;-76
2022/06/08 08:37:37;;;;;;;28.80;25.60;;;;;;;16.69;100.00;98536.40;105302;1271;69263;-76
2022/06/08 08:40:06;;;;;;;26.00;23.30;;;;;;;16.75;100.00;98526.55;105187;1271;73075;-76
2022/06/08 08:42:35;;;;;;;28.20;25.40;;;;;;;16.79;100.00;98516.31;105043;1274;62103;-76
2022/06/08 08:45:11;;;;;;;31.20;26.10;;;;;;;16.81;100.00;98509.08;105191;1271;62086;-75
2022/06/08 08:47:44;;;;;;;29.50;26.30;;;;;;;16.83;100.00;98496.98;105029;1271;76889;-74
2022/06/08 08:50:32;;;;;;;30.90;27.20;;;;;;;16.84;100.00;98482.95;105178;1271;69482;-75
2022/06/08 08:52:58;;;;;;;29.60;26.50;;;;;;;16.79;100.00;98478.45;105212;1271;73178;-74
2022/06/08 08:55:37;;;;;;;30.50;26.40;;;;;;;16.75;100.00;98482.61;105208;1271;62218;-75
2022/06/08 08:58:07;;;;;;;29.70;26.30;;;;;;;16.74;100.00;98486.60;105157;1270;62079;-74
2022/06/08 09:00:38;;;;;;;;;;;;;;;16.77;100.00;98485.97;105190;1271;76089;-75
2022/06/08 09:03:19;;;;;;;28.80;24.10;;;;;;;16.80;100.00;98481.18;105200;1272;70437;-76
2022/06/08 09:05:48;;;;;;;24.50;22.00;;;;;;;16.82;100.00;98480.59;105180;1271;74291;-75
2022/06/08 09:08:17;;;;;;;25.80;23.10;;;;;;;16.87;100.00;98479.78;105213;1271;62200;-75
2022/06/08 09:10:45;;;;;;;21.80;19.60;;;;;;;16.90;100.00;98476.55;105215;1271;62018;-75
2022/06/08 09:13:20;;;;;;;23.00;20.80;;;;;;;16.92;100.00;98473.70;105209;1271;76110;-75
2022/06/08 09:15:50;;;;;;;21.00;19.10;;;;;;;16.98;100.00;98477.02;105222;1271;69055;-75
2022/06/08 09:18:39;;;;;;;18.50;16.60;;;;;;;17.06;100.00;98472.64;105190;1271;72551;-74
2022/06/08 09:21:21;;;;;;;18.90;17.20;;;;;;;17.17;100.00;98472.71;104996;1274;62186;-74
2022/06/08 09:23:54;;;;;;;18.10;16.40;;;;;;;17.38;100.00;98463.61;104999;1271;62173;-74
2022/06/08 09:26:24;;;;;;;17.40;15.90;;;;;;;17.55;100.00;98457.33;105207;1271;76686;-74
2022/06/08 09:29:23;;;;;;;18.60;16.90;;;;;;;17.72;100.00;98447.25;105184;1271;68781;-75
2022/06/08 09:31:50;;;;;;;20.90;18.90;;;;;;;18.01;100.00;98444.09;104727;1278;73301;-73
2022/06/08 09:34:25;;;;;;;19.00;17.30;;;;;;;18.31;100.00;98438.72;104544;1280;62272;-74
2022/06/08 09:37:04;;;;;;;17.40;15.90;;;;;;;18.67;100.00;98433.50;104797;1277;62156;-75
2022/06/08 09:39:33;;;;;;;14.40;13.10;;;;;;;19.07;100.00;98439.25;104746;1278;76032;-75
2022/06/08 09:42:13;;;;;;;15.40;13.90;;;;;;;19.33;100.00;98437.64;105096;1278;69535;-75
2022/06/08 09:44:56;;;;;;;15.30;13.70;;;;;;;19.47;100.00;98436.75;104754;1278;75494;-75
2022/06/08 09:53:24;;;;;;;11.90;10.90;;;;;;;19.67;100.00;98428.73;104791;1277;76132;-76
2022/06/08 09:55:53;;;;;;;10.10;9.30;;;;;;;19.82;100.00;98426.61;104809;1277;69318;-77
2022/06/08 09:58:54;;;;;;;9.50;8.80;;;;;;;20.04;100.00;98418.39;104772;1277;72221;-77
2022/06/08 10:01:57;;;;;;;9.30;8.60;;;;;;;20.07;100.00;98417.09;104807;1276;62282;-73
2022/06/08 10:04:58;;;;;;;8.50;7.90;;;;;;;20.06;100.00;98421.61;104831;1277;62290;-74
2022/06/08 10:07:45;;;;;;;7.60;7.00;;;;;;;20.00;100.00;98426.25;104806;1277;76232;-76
2022/06/08 10:10:11;;;;;;;7.50;6.90;;;;;;;20.01;100.00;98422.50;105149;1271;69391;-75
2022/06/08 10:13:01;;;;;;;7.60;7.10;;;;;;;20.07;100.00;98421.88;105141;1269;62108;-75
2022/06/08 10:15:34;;;;;;;7.80;7.10;;;;;;;20.10;100.00;98423.07;105012;1271;62107;-76
2022/06/08 10:18:05;;;;;;;9.10;8.40;;;;;;;20.23;100.00;98420.29;105168;1271;62212;-76
2022/06/08 10:20:39;;;;;;;8.20;7.60;;;;;;;20.36;100.00;98417.71;104971;1272;75530;-76
2022/06/08 10:23:23;;;;;;;8.50;7.90;;;;;;;20.47;100.00;98412.98;105173;1271;68788;-77
2022/06/08 10:25:57;;;;;;;8.30;7.60;;;;;;;20.60;100.00;98406.26;105198;1271;74455;-76
2022/06/08 10:29:03;;;;;;;9.50;8.80;;;;;;;20.72;100.00;98403.39;104945;1271;62183;-76
2022/06/08 10:31:36;;;;;;;8.30;7.60;;;;;;;20.82;100.00;98400.38;105172;1271;62209;-77
2022/06/08 10:34:15;;;;;;;8.40;7.60;;;;;;;20.92;100.00;98407.85;105140;1269;76185;-76
2022/06/08 10:36:44;;;;;;;7.50;6.80;;;;;;;21.02;100.00;98407.42;105192;1271;69204;-75
2022/06/08 10:39:12;;;;;;;8.60;8.00;;;;;;;21.03;100.00;98401.73;105310;1271;73333;-76
2022/06/08 10:44:32;;;;;;;7.60;7.10;;;;;;;21.06;100.00;98402.98;105200;1271;62117;-78
2022/06/08 10:47:16;;;;;;;7.80;7.20;;;;;;;20.96;100.00;98408.50;105277;1271;75972;-77
2022/06/08 10:49:47;;;;;;;6.90;6.40;;;;;;;20.82;100.00;98405.30;105208;1271;70442;-77
2022/06/08 10:52:19;;;;;;;7.10;6.60;;;;;;;20.70;100.00;98408.15;105214;1270;72365;-76
2022/06/08 10:54:55;;;;;;;7.30;6.50;;;;;;;20.64;100.00;98409.65;105197;1270;62085;-77
2022/06/08 10:57:42;;;;;;;7.30;6.80;;;;;;;20.60;100.00;98405.52;105170;1271;62107;-78
2022/06/08 11:00:18;;;;;;;7.70;7.10;;;;;;;20.69;100.00;98401.04;104978;1271;76026;-77
2022/06/08 11:03:03;;;;;;;9.00;8.20;;;;;;;20.81;100.00;98406.66;105210;1271;68604;-77
2022/06/08 11:05:40;;;;;;;7.10;6.60;;;;;;;21.02;100.00;98404.55;105224;1271;71558;-76
2022/06/08 11:08:07;;;;;;;7.60;7.10;;;;;;;21.31;100.00;98402.71;105180;1271;62109;-75
2022/06/08 11:10:50;;;;;;;11.30;10.50;;;;;;;21.66;100.00;98393.39;105212;1271;62060;-77
2022/06/08 11:13:24;;;;;;;9.50;8.80;;;;;;;22.00;100.00;98384.12;105204;1271;74418;-77
2022/06/08 11:16:18;;;;;;;9.00;8.40;;;;;;;22.45;100.00;98380.30;105181;1271;69285;-78
2022/06/08 11:19:02;;;;;;;8.60;8.00;;;;;;;22.82;100.00;98374.73;105166;1271;74431;-78
2022/06/08 11:22:05;;;;;;;8.50;8.00;;;;;;;23.05;100.00;98371.02;105207;1271;62174;-76
2022/06/08 11:24:39;;;;;;;9.20;8.50;;;;;;;23.16;100.00;98371.39;105187;1271;62075;-77
2022/06/08 11:27:12;;;;;;;8.00;7.50;;;;;;;23.28;100.00;98373.15;105181;1271;75974;-77
2022/06/08 11:29:51;;;;;;;5.80;5.40;;;;;;;23.30;100.00;98375.25;105205;1271;70251;-77
2022/06/08 11:32:33;;;;;;;5.80;5.50;;;;;;;23.33;100.00;98375.77;105182;1271;73395;-76
2022/06/08 11:34:59;;;;;;;8.70;8.10;;;;;;;23.31;100.00;98376.76;105205;1269;62210;-77
2022/06/08 11:37:48;;;;;;;7.60;7.10;;;;;;;23.23;100.00;98375.76;105178;1271;62171;-77
2022/06/08 11:40:27;;;;;;;9.00;8.40;;;;;;;23.18;100.00;98376.98;105188;1271;75130;-78
2022/06/08 11:43:13;;;;;;;9.00;8.40;;;;;;;22.96;100.00;98375.54;105237;1271;67573;-78
2022/06/08 11:45:39;;;;;;;10.00;9.30;;;;;;;22.88;100.00;98377.80;105188;1271;74661;-77